Time;durP1;ratioP1;P1;durP2;ratioP2;P2;SDS_P1;SDS_P2;PMS_P1;PMS_P2;Temp;Humidity;BMP_temperature;BMP_pressure;BME280_temperature;BME280_humidity;BME280_pressure;Samples;Min_cycle;Max_cycle;Signal;HPM_P1;HPM_P2
2021/06/04 00:01:32;;;;;;;5.77;5.27;;;17.20;99.90;;;;;;5071613;28;20707;-85
2021/06/04 00:03:59;;;;;;;5.33;4.90;;;17.20;99.60;;;;;;5070833;28;21073;-86
2021/06/04 00:06:27;;;;;;;6.93;6.33;;;17.20;99.10;;;;;;5070829;28;20640;-85
2021/06/04 00:08:53;;;;;;;6.03;5.43;;;17.10;99.20;;;;;;5071043;28;20625;-85
2021/06/04 00:11:23;;;;;;;6.90;6.10;;;17.10;99.10;;;;;;5070718;28;20644;-86
2021/06/04 00:13:52;;;;;;;5.83;5.37;;;17.10;98.90;;;;;;5070920;28;21181;-85
2021/06/04 00:16:22;;;;;;;7.37;6.00;;;17.10;98.90;;;;;;5069893;28;20618;-85
2021/06/04 00:18:50;;;;;;;6.27;5.60;;;17.00;99.00;;;;;;5070969;28;20614;-85
2021/06/04 00:21:20;;;;;;;6.37;5.57;;;17.00;99.60;;;;;;5070589;28;20691;-85
2021/06/04 00:23:47;;;;;;;5.17;4.77;;;17.00;99.00;;;;;;5070748;28;20673;-85
2021/06/04 00:26:15;;;;;;;5.63;5.23;;;17.00;98.90;;;;;;5069436;28;20664;-85
2021/06/04 00:28:41;;;;;;;6.17;5.63;;;16.90;99.20;;;;;;5070142;28;20618;-85
2021/06/04 00:31:08;;;;;;;5.80;5.30;;;16.90;99.60;;;;;;5070422;28;20621;-85
2021/06/04 00:33:35;;;;;;;6.70;5.33;;;16.90;99.40;;;;;;5070729;28;20995;-85
2021/06/04 00:36:05;;;;;;;5.80;5.30;;;16.90;99.20;;;;;;5070076;28;20692;-85
2021/06/04 00:38:32;;;;;;;5.07;4.67;;;16.90;99.30;;;;;;5070054;28;20635;-85
2021/06/04 00:41:04;;;;;;;6.20;5.70;;;16.80;99.90;;;;;;5070074;28;20665;-85
2021/06/04 00:43:30;;;;;;;5.80;5.20;;;16.70;99.90;;;;;;5070019;28;21074;-85
2021/06/04 00:45:59;;;;;;;6.87;5.70;;;16.70;99.90;;;;;;5070160;28;20605;-85
2021/06/04 00:48:28;;;;;;;5.47;4.97;;;16.60;99.90;;;;;;5089042;28;20633;-85
2021/06/04 00:50:59;;;;;;;5.30;4.80;;;16.60;99.90;;;;;;5085677;28;20612;-85
2021/06/04 00:53:27;;;;;;;6.43;5.93;;;16.60;99.90;;;;;;5081445;28;21011;-85
2021/06/04 00:55:55;;;;;;;5.10;4.70;;;16.60;99.90;;;;;;5077660;28;21403;-85
2021/06/04 00:58:25;;;;;;;5.63;5.13;;;16.60;99.90;;;;;;5085550;28;20971;-85
2021/06/04 01:00:56;;;;;;;6.27;5.67;;;16.50;99.90;;;;;;5085542;28;20617;-85
2021/06/04 01:03:26;;;;;;;7.60;5.43;;;16.60;99.90;;;;;;5080667;28;20652;-85
2021/06/04 01:06:06;;;;;;;5.10;4.73;;;16.70;99.90;;;;;;5070228;28;20645;-84
2021/06/04 01:08:52;;;;;;;6.30;5.23;;;16.70;99.30;;;;;;5077808;28;20635;-85
2021/06/04 01:11:38;;;;;;;6.57;6.00;;;16.60;99.20;;;;;;5071619;28;20637;-85
2021/06/04 01:14:16;;;;;;;6.30;5.80;;;16.60;99.50;;;;;;5078031;28;20633;-85
2021/06/04 01:16:53;;;;;;;6.00;5.40;;;16.40;99.90;;;;;;5076447;28;20622;-85
2021/06/04 01:19:44;;;;;;;5.43;5.03;;;16.30;99.90;;;;;;5081296;28;20723;-85
2021/06/04 01:22:23;;;;;;;5.67;5.20;;;16.30;99.90;;;;;;5070461;28;21409;-85
2021/06/04 01:25:14;;;;;;;5.43;4.90;;;16.20;99.90;;;;;;5074621;28;20619;-85
2021/06/04 01:27:48;;;;;;;5.73;5.23;;;16.30;99.90;;;;;;5080886;28;20624;-84
2021/06/04 01:30:24;;;;;;;5.40;4.90;;;16.30;99.90;;;;;;5070881;28;20630;-84
2021/06/04 01:32:57;;;;;;;6.40;5.90;;;16.30;99.90;;;;;;5070249;28;20625;-84
2021/06/04 01:35:30;;;;;;;4.70;4.30;;;16.20;99.90;;;;;;5079582;28;20629;-84
2021/06/04 01:38:01;;;;;;;5.47;5.07;;;16.20;99.90;;;;;;5088738;28;20644;-84
2021/06/04 01:40:31;;;;;;;5.00;4.60;;;16.30;99.90;;;;;;5079944;28;20624;-85
2021/06/04 01:43:16;;;;;;;5.90;5.40;;;16.30;99.90;;;;;;5088222;28;20664;-84
2021/06/04 01:45:50;;;;;;;5.73;5.23;;;16.30;99.90;;;;;;5080659;28;20686;-84
2021/06/04 01:48:22;;;;;;;5.47;5.07;;;16.30;99.80;;;;;;5076813;28;20625;-85
2021/06/04 01:50:57;;;;;;;5.80;5.00;;;16.30;99.80;;;;;;5081619;28;21300;-85
2021/06/04 01:53:30;;;;;;;6.40;5.80;;;16.20;99.90;;;;;;5087281;28;21215;-84
2021/06/04 01:56:02;;;;;;;5.83;5.37;;;16.20;99.90;;;;;;5074602;28;20621;-84
2021/06/04 01:58:37;;;;;;;5.60;5.20;;;16.10;99.90;;;;;;5088482;28;20688;-84
2021/06/04 02:01:10;;;;;;;5.80;5.37;;;16.10;99.90;;;;;;5079489;28;20717;-84
2021/06/04 02:03:40;;;;;;;6.90;6.23;;;16.20;99.90;;;;;;5069767;28;20644;-84
2021/06/04 02:06:09;;;;;;;6.90;6.07;;;16.10;99.90;;;;;;5070263;28;20629;-85
2021/06/04 02:08:39;;;;;;;5.47;4.97;;;16.10;99.90;;;;;;5083432;28;20632;-84
2021/06/04 02:11:08;;;;;;;5.97;5.43;;;16.00;99.90;;;;;;5085279;28;20693;-85
2021/06/04 02:13:41;;;;;;;7.70;6.20;;;16.10;99.90;;;;;;5087348;28;20633;-84
2021/06/04 02:16:23;;;;;;;6.27;5.63;;;16.00;99.90;;;;;;5071129;28;21217;-85
2021/06/04 02:19:00;;;;;;;5.60;5.20;;;15.90;99.90;;;;;;5087305;28;20609;-84
2021/06/04 02:21:33;;;;;;;5.50;5.13;;;16.00;99.90;;;;;;5087338;28;20648;-84
2021/06/04 02:24:08;;;;;;;6.30;5.70;;;16.00;99.90;;;;;;5072239;28;20702;-84
2021/06/04 02:26:46;;;;;;;5.43;4.93;;;16.00;99.90;;;;;;5082814;28;20628;-84
2021/06/04 02:29:20;;;;;;;5.90;5.40;;;16.00;99.90;;;;;;5080799;28;20625;-84
2021/06/04 02:31:52;;;;;;;6.13;5.63;;;16.10;99.90;;;;;;5087041;28;21191;-84
2021/06/04 02:34:25;;;;;;;6.70;6.10;;;16.10;99.90;;;;;;5081598;28;20626;-84
2021/06/04 02:36:59;;;;;;;7.10;6.40;;;16.00;99.90;;;;;;5090473;28;20616;-84
2021/06/04 02:39:31;;;;;;;6.33;5.93;;;16.00;99.90;;;;;;5087445;28;21246;-84
2021/06/04 02:42:01;;;;;;;7.00;6.30;;;16.10;99.90;;;;;;5077823;28;21026;-84
2021/06/04 02:44:33;;;;;;;7.57;6.87;;;16.20;99.90;;;;;;5092495;28;20731;-85
2021/06/04 02:47:06;;;;;;;7.30;6.27;;;16.40;99.90;;;;;;5074190;28;21146;-84
2021/06/04 02:49:34;;;;;;;7.10;6.50;;;16.40;99.90;;;;;;5073733;28;20690;-84
2021/06/04 02:52:09;;;;;;;6.63;6.13;;;16.40;99.90;;;;;;5072789;28;20608;-84
2021/06/04 02:54:39;;;;;;;7.53;6.83;;;16.30;99.90;;;;;;5077397;28;20628;-83
2021/06/04 02:57:10;;;;;;;7.80;7.00;;;16.40;99.90;;;;;;5091082;28;21254;-83
2021/06/04 02:59:40;;;;;;;7.57;6.87;;;16.30;99.90;;;;;;5090130;28;20619;-83
2021/06/04 03:02:09;;;;;;;6.83;6.17;;;16.30;99.90;;;;;;5092483;28;21024;-84
2021/06/04 03:04:39;;;;;;;6.90;6.00;;;16.20;99.90;;;;;;5085071;28;20621;-84
2021/06/04 03:07:10;;;;;;;7.20;6.60;;;16.30;99.90;;;;;;5077675;28;20628;-84
2021/06/04 03:09:39;;;;;;;5.60;5.20;;;16.30;99.90;;;;;;5088296;28;20623;-83
2021/06/04 03:12:10;;;;;;;7.00;6.50;;;16.20;99.90;;;;;;5072323;28;20736;-84
2021/06/04 03:14:39;;;;;;;7.10;6.50;;;16.00;99.90;;;;;;5075041;28;20674;-84
2021/06/04 03:17:08;;;;;;;7.77;7.17;;;15.90;99.90;;;;;;5073478;28;20679;-84
2021/06/04 03:19:35;;;;;;;7.00;6.40;;;15.90;99.90;;;;;;5073900;28;20636;-83
2021/06/04 03:22:06;;;;;;;6.77;6.17;;;15.90;99.90;;;;;;5078765;28;20703;-83
2021/06/04 03:24:35;;;;;;;7.10;6.43;;;15.90;99.90;;;;;;5068863;28;20640;-83
2021/06/04 03:27:03;;;;;;;6.90;6.30;;;15.90;99.90;;;;;;5074259;28;20682;-84
2021/06/04 03:29:30;;;;;;;6.50;5.90;;;16.00;99.90;;;;;;5072738;28;21178;-83
2021/06/04 03:32:01;;;;;;;6.90;5.67;;;16.00;99.90;;;;;;5072878;28;20750;-83
2021/06/04 03:34:29;;;;;;;6.70;6.00;;;16.00;99.90;;;;;;5072223;28;20610;-83
2021/06/04 03:36:58;;;;;;;7.50;6.90;;;16.00;99.90;;;;;;5092220;28;20662;-83
2021/06/04 03:39:27;;;;;;;7.87;7.00;;;16.00;99.90;;;;;;5087240;28;21384;-83
2021/06/04 03:41:55;;;;;;;8.70;7.80;;;16.10;99.90;;;;;;5071686;28;20720;-83
2021/06/04 03:44:24;;;;;;;8.63;7.77;;;16.10;99.90;;;;;;5072186;28;20679;-83
2021/06/04 03:46:51;;;;;;;8.10;7.30;;;16.10;99.90;;;;;;5071451;28;20628;-83
2021/06/04 03:49:20;;;;;;;6.90;6.20;;;16.20;99.90;;;;;;5075739;28;20610;-83
2021/06/04 03:51:47;;;;;;;7.47;6.67;;;16.30;99.90;;;;;;5090576;28;20718;-83
2021/06/04 03:54:16;;;;;;;7.90;7.10;;;16.30;99.90;;;;;;5074475;28;20678;-84
2021/06/04 03:56:44;;;;;;;7.23;6.70;;;16.30;99.90;;;;;;5086889;28;20689;-83
2021/06/04 03:59:11;;;;;;;7.63;6.93;;;16.40;99.90;;;;;;5075827;28;20631;-83
2021/06/04 04:01:42;;;;;;;8.00;7.30;;;16.30;99.90;;;;;;5088828;28;20664;-83
2021/06/04 04:04:08;;;;;;;7.27;6.67;;;16.30;99.90;;;;;;5077281;28;20633;-83
2021/06/04 04:06:36;;;;;;;10.20;7.43;;;16.30;99.90;;;;;;5086082;28;21196;-83
2021/06/04 04:09:05;;;;;;;7.90;7.20;;;16.50;99.90;;;;;;5090274;28;21223;-83
2021/06/04 04:11:32;;;;;;;7.17;6.53;;;16.60;99.90;;;;;;5077375;28;20631;-83
2021/06/04 04:13:58;;;;;;;8.60;7.73;;;16.70;99.90;;;;;;5090145;28;20722;-83
2021/06/04 04:16:25;;;;;;;8.53;7.80;;;16.80;99.90;;;;;;5070275;28;20642;-83
2021/06/04 04:18:51;;;;;;;8.77;8.07;;;17.00;99.90;;;;;;5083514;28;20651;-83
2021/06/04 04:21:18;;;;;;;10.10;8.17;;;17.10;99.90;;;;;;5075499;28;20608;-83
2021/06/04 04:23:49;;;;;;;8.27;7.57;;;17.20;99.90;;;;;;5090126;28;20664;-83
2021/06/04 04:26:18;;;;;;;9.40;7.63;;;17.30;99.90;;;;;;5085500;28;20656;-83
2021/06/04 04:28:47;;;;;;;7.90;7.17;;;17.50;99.90;;;;;;5072743;28;20625;-83
2021/06/04 04:31:16;;;;;;;7.97;7.27;;;17.50;99.90;;;;;;5072222;28;20617;-83
2021/06/04 04:33:43;;;;;;;8.83;8.03;;;17.60;99.90;;;;;;5070440;28;20678;-83
2021/06/04 04:36:11;;;;;;;9.10;7.93;;;17.60;99.90;;;;;;5085312;28;20724;-82
2021/06/04 04:38:38;;;;;;;7.20;6.60;;;17.60;99.90;;;;;;5078735;28;20729;-83
2021/06/04 04:41:08;;;;;;;8.93;8.03;;;17.60;99.90;;;;;;5087824;28;20720;-83
2021/06/04 04:43:38;;;;;;;8.43;7.70;;;17.70;99.90;;;;;;5072058;28;20664;-83
2021/06/04 04:46:06;;;;;;;9.30;8.33;;;17.70;99.90;;;;;;5076782;28;20640;-83
2021/06/04 04:48:34;;;;;;;7.97;7.20;;;17.60;99.90;;;;;;5070743;28;20970;-84
2021/06/04 04:51:01;;;;;;;8.10;7.40;;;17.50;99.90;;;;;;5072508;28;20977;-83
2021/06/04 04:53:28;;;;;;;8.33;7.53;;;17.50;99.90;;;;;;5070474;28;20625;-83
2021/06/04 04:55:54;;;;;;;8.00;7.40;;;17.50;99.90;;;;;;5078373;28;20614;-83
2021/06/04 04:58:22;;;;;;;8.23;7.53;;;17.50;99.90;;;;;;5070523;28;20656;-84
2021/06/04 05:00:49;;;;;;;8.40;7.60;;;17.50;99.90;;;;;;5075691;28;20626;-84
2021/06/04 05:03:17;;;;;;;8.83;8.00;;;17.50;99.90;;;;;;5070514;28;20672;-83
2021/06/04 05:05:44;;;;;;;10.70;7.90;;;17.60;99.90;;;;;;5077539;28;20946;-84
2021/06/04 05:08:10;;;;;;;9.27;7.67;;;17.70;99.90;;;;;;5073562;28;20993;-84
2021/06/04 05:10:37;;;;;;;8.40;7.70;;;17.70;99.90;;;;;;5076578;28;20626;-84
2021/06/04 05:13:06;;;;;;;9.30;7.57;;;17.70;99.90;;;;;;5082075;28;20979;-83
2021/06/04 05:15:37;;;;;;;8.27;7.57;;;17.80;99.90;;;;;;5083056;28;20618;-84
2021/06/04 05:18:04;;;;;;;8.17;7.47;;;17.90;99.90;;;;;;5070710;28;20607;-83
2021/06/04 05:20:30;;;;;;;7.60;6.93;;;18.00;99.90;;;;;;5082529;28;20654;-83
2021/06/04 05:22:58;;;;;;;8.70;8.00;;;18.00;99.90;;;;;;5077716;28;20707;-84
2021/06/04 05:25:28;;;;;;;9.20;7.40;;;18.20;99.90;;;;;;5079917;28;20624;-83
2021/06/04 05:27:54;;;;;;;8.30;7.50;;;18.30;99.90;;;;;;5090463;28;20623;-84
2021/06/04 05:30:27;;;;;;;7.73;7.03;;;18.40;99.90;;;;;;5080706;28;20631;-84
2021/06/04 05:32:54;;;;;;;6.73;6.23;;;18.50;99.90;;;;;;5069878;28;20660;-84
2021/06/04 05:35:21;;;;;;;8.30;7.50;;;18.60;99.90;;;;;;5070525;28;20623;-84
2021/06/04 05:37:48;;;;;;;7.73;7.13;;;18.70;99.90;;;;;;5070299;28;20628;-84
2021/06/04 05:40:18;;;;;;;7.37;6.67;;;18.80;99.90;;;;;;5076401;28;20620;-83
2021/06/04 05:42:44;;;;;;;8.50;7.10;;;18.80;99.90;;;;;;5090016;28;20644;-83
2021/06/04 05:45:12;;;;;;;8.40;7.70;;;19.00;99.90;;;;;;5088156;28;21026;-84
2021/06/04 05:47:39;;;;;;;7.33;6.63;;;19.10;99.90;;;;;;5090403;28;20600;-84
2021/06/04 05:50:11;;;;;;;7.03;6.53;;;19.20;99.90;;;;;;5090453;28;20615;-84
2021/06/04 05:52:38;;;;;;;7.47;6.87;;;19.30;99.90;;;;;;5082440;28;21228;-84
2021/06/04 05:55:06;;;;;;;7.20;6.50;;;19.50;99.90;;;;;;5102068;28;20626;-83
2021/06/04 05:57:32;;;;;;;6.23;5.73;;;19.60;99.90;;;;;;5101052;28;20654;-84
2021/06/04 05:59:59;;;;;;;6.03;5.63;;;19.70;99.90;;;;;;5089869;28;20629;-84
2021/06/04 06:02:25;;;;;;;5.63;5.13;;;19.80;99.90;;;;;;5089843;28;20686;-84
2021/06/04 06:04:52;;;;;;;6.00;5.57;;;20.00;99.60;;;;;;5086245;28;20625;-85
2021/06/04 06:07:19;;;;;;;5.27;4.77;;;20.00;98.20;;;;;;5090041;28;20621;-85
2021/06/04 06:09:46;;;;;;;4.83;4.50;;;20.20;98.00;;;;;;5089802;28;20624;-84
2021/06/04 06:12:13;;;;;;;4.80;4.40;;;20.40;97.70;;;;;;5090601;28;21204;-84
2021/06/04 06:14:39;;;;;;;4.53;4.23;;;20.40;96.70;;;;;;5093141;28;20617;-84
2021/06/04 06:17:06;;;;;;;5.90;4.13;;;20.60;95.50;;;;;;5094000;28;20616;-84
2021/06/04 06:19:32;;;;;;;5.10;4.07;;;20.60;95.30;;;;;;5094021;28;20593;-84
2021/06/04 06:22:00;;;;;;;4.93;4.50;;;20.70;94.30;;;;;;5092502;28;20693;-84
2021/06/04 06:24:28;;;;;;;5.13;4.63;;;20.70;94.40;;;;;;5075922;28;20624;-84
2021/06/04 06:26:54;;;;;;;4.87;4.40;;;20.70;94.50;;;;;;5093412;28;20605;-84
2021/06/04 06:29:21;;;;;;;5.07;4.67;;;20.90;94.30;;;;;;5093484;28;20634;-84
2021/06/04 06:31:48;;;;;;;4.43;4.03;;;20.80;94.10;;;;;;5094079;28;20628;-84
2021/06/04 06:34:15;;;;;;;4.30;3.90;;;20.90;94.60;;;;;;5093721;28;21252;-84
2021/06/04 06:36:44;;;;;;;4.47;4.07;;;20.80;94.40;;;;;;5068464;28;20734;-83
2021/06/04 06:39:14;;;;;;;3.90;3.60;;;20.80;94.20;;;;;;5091210;28;20660;-84
2021/06/04 06:41:43;;;;;;;4.17;3.87;;;20.80;93.90;;;;;;5091737;28;21370;-84
2021/06/04 06:44:11;;;;;;;4.20;3.87;;;20.80;93.80;;;;;;5092164;28;20645;-84
2021/06/04 06:46:39;;;;;;;3.77;3.47;;;20.80;93.40;;;;;;5092673;28;20657;-83
2021/06/04 06:49:06;;;;;;;3.93;3.63;;;20.80;93.90;;;;;;5091595;28;21177;-83
2021/06/04 06:51:33;;;;;;;4.17;3.80;;;20.80;94.10;;;;;;5091943;28;20656;-83
2021/06/04 06:54:00;;;;;;;3.67;3.37;;;20.80;94.20;;;;;;5091659;28;21214;-83
2021/06/04 06:56:27;;;;;;;5.00;3.90;;;20.80;94.60;;;;;;5083662;28;20657;-83
2021/06/04 06:58:55;;;;;;;4.67;4.27;;;20.70;94.50;;;;;;5076439;28;20616;-83
2021/06/04 07:01:22;;;;;;;4.53;4.23;;;20.70;94.10;;;;;;5093281;28;20711;-83
2021/06/04 07:03:49;;;;;;;3.93;3.63;;;20.70;94.80;;;;;;5089275;28;20712;-83
2021/06/04 07:06:18;;;;;;;4.10;3.80;;;20.70;94.90;;;;;;5072104;28;20613;-83
2021/06/04 07:08:45;;;;;;;3.87;3.60;;;20.70;94.10;;;;;;5072066;28;20660;-83
2021/06/04 07:11:13;;;;;;;3.50;3.30;;;20.70;94.20;;;;;;5072126;28;20614;-83
2021/06/04 07:13:39;;;;;;;4.90;4.33;;;20.70;94.20;;;;;;5072974;28;20675;-82
2021/06/04 07:16:10;;;;;;;4.40;3.50;;;20.60;94.80;;;;;;5072089;28;21190;-83
2021/06/04 07:18:38;;;;;;;7.20;4.93;;;20.60;95.10;;;;;;5072737;28;20664;-83
2021/06/04 07:21:11;;;;;;;4.80;4.40;;;20.60;95.40;;;;;;5072313;28;20621;-83
2021/06/04 07:23:38;;;;;;;4.30;3.93;;;20.50;94.90;;;;;;5071255;28;20804;-83
2021/06/04 07:26:04;;;;;;;4.80;4.50;;;20.60;95.90;;;;;;5088829;28;20609;-83
2021/06/04 07:28:33;;;;;;;5.33;4.83;;;20.60;96.10;;;;;;5092646;28;20969;-83
2021/06/04 07:31:02;;;;;;;4.40;4.10;;;20.70;95.60;;;;;;5092579;28;20663;-84
2021/06/04 07:33:34;;;;;;;4.20;3.83;;;20.80;95.60;;;;;;5092730;28;21150;-83
2021/06/04 07:36:04;;;;;;;4.60;4.27;;;21.00;95.20;;;;;;5091528;28;20613;-84
2021/06/04 07:38:31;;;;;;;5.17;4.17;;;21.20;95.40;;;;;;5081342;28;20621;-84
2021/06/04 07:40:59;;;;;;;5.00;4.60;;;21.30;94.30;;;;;;5083856;28;20650;-86
2021/06/04 07:43:28;;;;;;;4.43;4.13;;;21.60;93.40;;;;;;5084274;28;20765;-85
2021/06/04 07:45:56;;;;;;;5.10;3.93;;;21.70;93.20;;;;;;5067579;28;21248;-85
2021/06/04 07:48:23;;;;;;;4.30;3.93;;;21.90;93.00;;;;;;5082829;28;20626;-85
2021/06/04 07:50:53;;;;;;;4.07;3.67;;;21.90;91.60;;;;;;5092104;28;20614;-84
2021/06/04 07:53:23;;;;;;;4.67;4.00;;;21.90;91.80;;;;;;5091247;28;20623;-85
2021/06/04 07:55:49;;;;;;;4.53;3.10;;;22.00;92.10;;;;;;5086298;28;20671;-85
2021/06/04 07:58:16;;;;;;;4.50;4.10;;;22.10;91.00;;;;;;5088689;28;21033;-85
2021/06/04 08:00:43;;;;;;;3.60;3.30;;;22.20;91.00;;;;;;5089605;28;20703;-85
2021/06/04 08:03:11;;;;;;;3.97;3.53;;;22.50;91.30;;;;;;5091740;28;20702;-85
2021/06/04 08:05:38;;;;;;;4.40;4.00;;;22.70;91.20;;;;;;5091490;28;20625;-85
2021/06/04 08:08:08;;;;;;;4.17;3.80;;;22.90;89.60;;;;;;5091603;28;21240;-85
2021/06/04 08:10:35;;;;;;;3.67;3.40;;;23.10;88.00;;;;;;5092036;28;20619;-85
2021/06/04 08:13:02;;;;;;;4.00;3.70;;;23.30;87.50;;;;;;5090194;28;20722;-84
2021/06/04 08:15:33;;;;;;;3.60;3.30;;;23.50;87.80;;;;;;5090032;28;20605;-85
2021/06/04 08:17:59;;;;;;;3.63;3.33;;;23.60;86.40;;;;;;5092004;28;20661;-85
2021/06/04 08:20:31;;;;;;;3.73;3.53;;;23.70;84.40;;;;;;5091659;28;20628;-85
2021/06/04 08:23:01;;;;;;;5.37;3.40;;;23.80;84.70;;;;;;5082370;28;20655;-85
2021/06/04 08:25:33;;;;;;;4.30;4.00;;;23.90;84.70;;;;;;5082192;28;20623;-85
2021/06/04 08:28:00;;;;;;;3.43;2.50;;;23.90;82.70;;;;;;5089853;28;20609;-84
2021/06/04 08:30:27;;;;;;;3.27;3.07;;;23.90;80.90;;;;;;5090904;28;20675;-85
2021/06/04 08:32:54;;;;;;;3.33;3.00;;;23.90;77.00;;;;;;5078800;28;20652;-85
2021/06/04 08:35:21;;;;;;;3.10;2.90;;;24.00;77.20;;;;;;5070419;28;20942;-85
2021/06/04 08:37:48;;;;;;;4.93;2.90;;;24.00;77.40;;;;;;5071196;28;20633;-85
2021/06/04 08:40:17;;;;;;;2.80;2.60;;;24.10;78.00;;;;;;5069812;28;20640;-85
2021/06/04 08:42:55;;;;;;;7.23;3.60;;;24.10;77.50;;;;;;5070842;28;20752;-84
2021/06/04 08:45:34;;;;;;;3.07;2.70;;;24.10;76.20;;;;;;5070439;28;20613;-85
2021/06/04 08:48:09;;;;;;;3.43;3.00;;;24.20;75.80;;;;;;5070884;28;20624;-84
2021/06/04 08:50:43;;;;;;;4.27;3.33;;;24.30;74.00;;;;;;5070845;28;20620;-85
2021/06/04 08:53:24;;;;;;;3.60;3.23;;;24.50;73.90;;;;;;5084041;28;20639;-85
2021/06/04 08:55:59;;;;;;;3.00;2.80;;;24.60;71.80;;;;;;5095206;28;20628;-85
2021/06/04 08:58:46;;;;;;;3.47;3.17;;;24.80;72.10;;;;;;5081164;28;21058;-85
2021/06/04 09:01:18;;;;;;;3.43;3.23;;;25.00;70.80;;;;;;5070068;28;20621;-85
2021/06/04 09:03:48;;;;;;;3.20;2.90;;;25.10;71.30;;;;;;5076507;28;20660;-85
2021/06/04 09:06:28;;;;;;;5.47;3.27;;;25.20;72.70;;;;;;5085566;28;20724;-86
2021/06/04 09:08:55;;;;;;;4.03;3.73;;;25.30;71.00;;;;;;5090857;28;20620;-85
2021/06/04 09:11:28;;;;;;;4.13;3.83;;;25.30;68.20;;;;;;5088888;28;20625;-85
2021/06/04 09:13:56;;;;;;;3.17;2.97;;;25.30;68.40;;;;;;5069183;28;20629;-84
2021/06/04 09:16:37;;;;;;;4.20;3.33;;;25.20;68.50;;;;;;5079794;28;21183;-85
2021/06/04 09:19:09;;;;;;;7.80;3.33;;;25.30;68.10;;;;;;5090538;28;20616;-86
2021/06/04 09:21:39;;;;;;;3.60;3.30;;;25.40;68.10;;;;;;5090669;28;20655;-85
2021/06/04 09:24:09;;;;;;;3.30;3.00;;;25.70;68.90;;;;;;5089935;28;20664;-85
2021/06/04 09:26:36;;;;;;;4.30;2.90;;;25.70;69.90;;;;;;5070042;28;20606;-85
2021/06/04 09:29:20;;;;;;;3.40;3.20;;;25.80;67.30;;;;;;5070495;28;20766;-85
2021/06/04 09:31:49;;;;;;;4.40;4.10;;;26.00;67.30;;;;;;5070367;28;20621;-86
2021/06/04 09:34:26;;;;;;;3.90;3.60;;;26.20;69.20;;;;;;5070098;28;21185;-85
2021/06/04 09:36:56;;;;;;;4.27;3.90;;;26.50;69.60;;;;;;5069919;28;20617;-86
2021/06/04 09:39:30;;;;;;;5.63;3.40;;;26.70;68.50;;;;;;5070557;28;20628;-85
2021/06/04 09:42:16;;;;;;;3.90;3.60;;;26.90;69.20;;;;;;5070269;28;20647;-85
2021/06/04 09:44:59;;;;;;;5.43;3.50;;;26.90;67.60;;;;;;5069565;28;20693;-85
2021/06/04 09:47:44;;;;;;;5.73;3.73;;;26.70;65.50;;;;;;5070100;28;20965;-86
2021/06/04 09:50:19;;;;;;;3.93;3.53;;;26.50;64.70;;;;;;5070601;28;20668;-86
2021/06/04 09:52:59;;;;;;;4.70;4.20;;;26.50;63.10;;;;;;5078503;28;20677;-86
2021/06/04 09:55:29;;;;;;;4.50;4.20;;;26.80;65.70;;;;;;5089258;28;20616;-86
2021/06/04 09:58:02;;;;;;;4.70;4.30;;;26.90;68.10;;;;;;5090247;28;20620;-86
2021/06/04 10:00:32;;;;;;;4.53;4.13;;;26.60;67.70;;;;;;5090283;28;20620;-85
2021/06/04 10:03:26;;;;;;;10.83;4.80;;;26.60;67.50;;;;;;5090325;28;20656;-84
2021/06/04 10:06:10;;;;;;;4.50;4.10;;;26.50;70.10;;;;;;5075158;28;20636;-85
2021/06/04 10:08:43;;;;;;;5.00;4.60;;;26.20;68.00;;;;;;5087963;28;20685;-84
2021/06/04 10:11:20;;;;;;;6.87;4.37;;;25.70;70.80;;;;;;5090118;28;20608;-85
2021/06/04 10:13:51;;;;;;;5.17;4.70;;;26.30;71.40;;;;;;5089125;28;20958;-84
2021/06/04 10:16:48;;;;;;;6.70;4.73;;;26.80;70.80;;;;;;5088656;28;20715;-85
2021/06/04 10:19:24;;;;;;;4.90;4.50;;;27.30;68.80;;;;;;5069496;28;21169;-84
2021/06/04 10:21:53;;;;;;;5.80;4.60;;;27.20;68.60;;;;;;5069251;28;21014;-85
2021/06/04 10:24:26;;;;;;;5.77;4.50;;;27.00;67.40;;;;;;5071683;28;20655;-84
2021/06/04 10:26:55;;;;;;;4.87;4.37;;;26.50;67.70;;;;;;5070204;28;20700;-85
2021/06/04 10:29:22;;;;;;;4.60;4.20;;;26.00;71.90;;;;;;5064294;28;20634;-84
2021/06/04 10:31:53;;;;;;;4.20;3.90;;;25.70;70.70;;;;;;5067710;28;20628;-85
2021/06/04 10:34:52;;;;;;;5.13;4.70;;;25.60;72.20;;;;;;5080114;28;20628;-85
2021/06/04 10:37:23;;;;;;;6.37;4.77;;;25.30;72.90;;;;;;5047087;28;20733;-85
2021/06/04 10:39:54;;;;;;;4.83;4.23;;;25.20;73.30;;;;;;5074287;28;20628;-85
2021/06/04 10:42:30;;;;;;;3.90;3.60;;;25.20;75.10;;;;;;5080105;28;20682;-85
2021/06/04 10:45:09;;;;;;;4.80;4.47;;;25.30;75.40;;;;;;5079005;28;20633;-86
2021/06/04 10:47:47;;;;;;;5.77;4.10;;;25.30;74.60;;;;;;5083220;28;21205;-85
2021/06/04 10:50:17;;;;;;;5.77;4.10;;;25.20;74.10;;;;;;5078891;28;20972;-84
2021/06/04 10:52:57;;;;;;;4.40;4.00;;;25.30;74.60;;;;;;5071995;28;20628;-86
2021/06/04 10:55:28;;;;;;;5.73;4.70;;;25.10;75.10;;;;;;5080064;28;20627;-86
2021/06/04 10:58:03;;;;;;;4.37;4.07;;;25.00;76.30;;;;;;5087368;28;20608;-86
2021/06/04 11:00:36;;;;;;;5.07;4.53;;;25.10;75.80;;;;;;5093410;28;20956;-86
2021/06/04 11:03:10;;;;;;;5.30;4.90;;;25.00;75.70;;;;;;5084192;28;20683;-86
2021/06/04 11:05:57;;;;;;;4.40;4.00;;;25.00;75.50;;;;;;5080507;28;21205;-86
2021/06/04 11:08:47;;;;;;;5.03;3.93;;;25.10;75.50;;;;;;5090093;28;20636;-86
2021/06/04 11:11:26;;;;;;;5.03;4.63;;;25.20;76.80;;;;;;5092879;28;20624;-86
2021/06/04 11:14:04;;;;;;;5.47;4.90;;;25.10;76.90;;;;;;5075202;28;20639;-86
2021/06/04 11:16:37;;;;;;;5.20;4.17;;;25.30;76.60;;;;;;5084205;28;20656;-85
2021/06/04 11:19:15;;;;;;;5.60;3.83;;;25.50;74.30;;;;;;5079957;28;20636;-84
2021/06/04 11:21:48;;;;;;;4.93;4.17;;;25.60;73.00;;;;;;5076934;28;20613;-84
2021/06/04 11:24:21;;;;;;;6.17;4.40;;;25.80;71.20;;;;;;5080897;28;20668;-86
2021/06/04 11:26:52;;;;;;;4.27;3.87;;;26.00;71.30;;;;;;5079676;28;21206;-86
2021/06/04 11:29:20;;;;;;;4.87;4.17;;;26.00;72.10;;;;;;5081161;28;20629;-85
2021/06/04 11:31:59;;;;;;;4.17;3.87;;;26.00;71.40;;;;;;5081339;28;20818;-83
2021/06/04 11:34:44;;;;;;;5.10;4.40;;;26.00;72.80;;;;;;5085516;28;20620;-83
2021/06/04 11:37:12;;;;;;;5.03;4.70;;;25.80;73.30;;;;;;5089095;28;20632;-84
2021/06/04 11:39:42;;;;;;;4.73;3.93;;;25.80;73.00;;;;;;5074690;28;20656;-85
2021/06/04 11:42:11;;;;;;;4.80;4.40;;;25.80;70.30;;;;;;5072433;28;20633;-84
2021/06/04 11:44:43;;;;;;;5.03;4.57;;;25.90;70.70;;;;;;5073299;28;20672;-84
2021/06/04 11:47:35;;;;;;;6.23;4.60;;;26.00;70.20;;;;;;5072570;28;20618;-85
2021/06/04 11:50:22;;;;;;;6.53;4.40;;;26.00;69.40;;;;;;5081471;28;20678;-84
2021/06/04 11:52:50;;;;;;;4.80;4.40;;;26.00;70.80;;;;;;5090660;28;20636;-84
2021/06/04 11:55:22;;;;;;;5.70;4.80;;;25.90;73.30;;;;;;5090447;28;20656;-84
2021/06/04 11:57:52;;;;;;;5.03;4.47;;;26.00;72.60;;;;;;5072269;28;20976;-84
2021/06/04 12:00:37;;;;;;;5.17;4.77;;;26.10;72.40;;;;;;5083948;28;20679;-84
2021/06/04 12:03:32;;;;;;;4.53;4.23;;;26.20;71.00;;;;;;5104131;28;20811;-84
2021/06/04 12:06:29;;;;;;;5.10;4.60;;;26.20;71.40;;;;;;5056418;28;20640;-84
2021/06/04 12:08:57;;;;;;;5.60;4.53;;;26.10;73.00;;;;;;5079011;28;20621;-86
2021/06/04 12:11:28;;;;;;;5.33;4.53;;;26.10;74.00;;;;;;5080928;28;20624;-86
2021/06/04 12:14:18;;;;;;;4.90;4.03;;;25.90;72.80;;;;;;5079962;28;20625;-86
2021/06/04 12:16:46;;;;;;;5.47;4.20;;;25.60;73.20;;;;;;5072435;28;20625;-86
2021/06/04 12:19:31;;;;;;;4.53;4.30;;;25.50;72.80;;;;;;5072401;28;20626;-86
2021/06/04 12:22:03;;;;;;;4.30;4.00;;;25.20;72.10;;;;;;5071955;28;20674;-85
2021/06/04 12:25:01;;;;;;;4.37;3.97;;;25.30;74.00;;;;;;5070815;28;20664;-86
2021/06/04 12:28:07;;;;;;;6.40;4.47;;;25.20;76.00;;;;;;5071086;28;20946;-86
2021/06/04 12:31:08;;;;;;;5.47;4.73;;;24.60;77.00;;;;;;5071137;28;20724;-86
2021/06/04 12:33:50;;;;;;;4.60;4.20;;;24.40;78.30;;;;;;5070979;28;20705;-86
2021/06/04 12:36:55;;;;;;;4.40;4.00;;;23.90;79.90;;;;;;5071161;28;21277;-85
2021/06/04 12:39:51;;;;;;;4.07;3.70;;;22.90;84.60;;;;;;5070967;28;21008;-87
2021/06/04 12:42:36;;;;;;;3.60;2.63;;;23.60;85.30;;;;;;5071131;28;20629;-87
2021/06/04 12:45:10;;;;;;;2.73;2.53;;;25.40;81.60;;;;;;5070923;28;20665;-86
2021/06/04 12:47:41;;;;;;;3.53;2.80;;;26.30;75.70;;;;;;5071358;28;21100;-87
2021/06/04 12:50:12;;;;;;;2.47;2.33;;;25.80;70.60;;;;;;5065250;28;20649;-88
2021/06/04 12:52:40;;;;;;;3.03;2.73;;;26.20;73.80;;;;;;5070671;28;20622;-86
2021/06/04 12:55:22;;;;;;;6.07;3.30;;;26.00;71.90;;;;;;5070781;28;20634;-86
2021/06/04 12:57:49;;;;;;;3.40;2.90;;;26.80;71.70;;;;;;5078981;28;20625;-86
2021/06/04 13:00:26;;;;;;;5.17;2.50;;;27.30;69.70;;;;;;5074977;28;20634;-87
2021/06/04 13:02:55;;;;;;;3.53;2.43;;;27.80;69.40;;;;;;5075237;28;20628;-87
2021/06/04 13:05:28;;;;;;;3.17;2.97;;;28.30;65.50;;;;;;5090774;28;20628;-87
2021/06/04 13:07:56;;;;;;;4.13;3.00;;;28.60;63.60;;;;;;5082134;28;20626;-86
2021/06/04 13:10:29;;;;;;;3.60;3.40;;;28.80;63.80;;;;;;5078668;28;20635;-86